Time;durP1;ratioP1;P1;durP2;ratioP2;P2;SDS_P1;SDS_P2;PMS_P1;PMS_P2;Temp;Humidity;BMP_temperature;BMP_pressure;BME280_temperature;BME280_humidity;BME280_pressure;Samples;Min_cycle;Max_cycle;Signal;HPM_P1;HPM_P2
2023/05/26 00:01:53;;;;;;;6.10;4.85;;;;;;;15.38;82.02;99440.47;4921512;29;20035;-91
2023/05/26 00:04:18;;;;;;;8.18;5.30;;;;;;;15.43;82.01;99443.91;4905715;29;20510;-92
2023/05/26 00:06:46;;;;;;;6.78;5.07;;;;;;;15.48;81.98;99430.25;4921775;29;20039;-91
2023/05/26 00:09:14;;;;;;;6.88;5.32;;;;;;;15.46;82.06;99432.47;4921491;29;20028;-91
2023/05/26 00:11:39;;;;;;;9.50;5.65;;;;;;;15.54;83.08;99448.06;4906468;29;20401;-91
2023/05/26 00:14:05;;;;;;;10.23;5.60;;;;;;;15.54;83.15;99450.75;4921913;29;20019;-92
2023/05/26 00:16:32;;;;;;;7.35;5.13;;;;;;;15.36;84.28;99433.44;4905620;29;20067;-92
2023/05/26 00:18:57;;;;;;;9.85;5.43;;;;;;;15.38;84.33;99448.59;4921545;29;20499;-92
2023/05/26 00:21:22;;;;;;;8.30;5.72;;;;;;;15.10;84.48;99424.91;4921977;29;20024;-92
2023/05/26 00:23:48;;;;;;;8.30;5.35;;;;;;;15.10;84.67;99427.63;4922024;29;20035;-91
2023/05/26 00:26:14;;;;;;;10.63;5.55;;;;;;;15.15;85.06;99421.34;4937972;29;20082;-91
2023/05/26 00:28:40;;;;;;;10.20;5.68;;;;;;;15.14;84.74;99428.66;4937758;29;20087;-91
2023/05/26 00:31:06;;;;;;;10.00;5.85;;;;;;;15.08;84.22;99434.47;4906097;29;20028;-92
2023/05/26 00:33:32;;;;;;;10.05;6.10;;;;;;;15.01;84.42;99423.22;4921522;29;20163;-91
2023/05/26 00:35:57;;;;;;;9.07;5.30;;;;;;;15.10;84.37;99430.34;4922259;29;20028;-92
2023/05/26 00:38:23;;;;;;;11.30;5.93;;;;;;;15.04;84.73;99426.09;4905590;29;20032;-91
2023/05/26 00:40:49;;;;;;;8.13;6.63;;;;;;;14.90;85.09;99414.41;4922292;29;20039;-91
2023/05/26 00:43:14;;;;;;;11.57;7.07;;;;;;;14.86;85.60;99425.06;4922287;29;20541;-91
2023/05/26 00:45:40;;;;;;;11.90;6.88;;;;;;;14.84;84.78;99427.25;4938661;29;20083;-91
2023/05/26 00:48:07;;;;;;;16.27;6.95;;;;;;;14.84;84.06;99418.34;4938870;29;20090;-91
2023/05/26 00:50:33;;;;;;;8.15;5.63;;;;;;;15.00;83.83;99425.09;4938380;29;20046;-92
2023/05/26 00:52:59;;;;;;;8.48;5.55;;;;;;;15.02;82.99;99420.19;4937850;29;20028;-92
2023/05/26 00:55:25;;;;;;;14.27;5.70;;;;;;;15.00;82.55;99422.38;4922249;29;20051;-92
2023/05/26 00:57:50;;;;;;;11.82;5.80;;;;;;;15.10;82.58;99453.97;4905368;29;20027;-92
2023/05/26 01:00:16;;;;;;;7.03;5.35;;;;;;;15.08;82.13;99446.09;4938115;29;20028;-91
2023/05/26 01:02:45;;;;;;;6.93;5.05;;;;;;;14.91;82.63;99433.09;4937811;29;20043;-92
2023/05/26 01:05:15;;;;;;;11.20;5.10;;;;;;;14.95;81.92;99442.25;4924328;29;20028;-92
2023/05/26 01:07:42;;;;;;;11.00;5.65;;;;;;;14.91;83.24;99446.66;4941638;29;20023;-92
2023/05/26 01:10:08;;;;;;;9.57;5.30;;;;;;;14.95;82.88;99438.75;4940607;29;20406;-92
2023/05/26 01:12:49;;;;;;;10.18;5.85;;;;;;;15.06;82.47;99456.44;4924873;29;20019;-92
2023/05/26 01:15:21;;;;;;;8.57;5.90;;;;;;;14.92;82.96;99445.56;4942058;29;20071;-93
2023/05/26 01:18:09;;;;;;;6.53;4.93;;;;;;;14.88;82.24;99432.88;4925905;29;20038;-92
2023/05/26 01:20:38;;;;;;;7.22;5.32;;;;;;;14.81;82.17;99427.03;4909705;29;20019;-92
2023/05/26 01:23:06;;;;;;;7.65;5.28;;;;;;;14.97;81.67;99446.59;4924906;29;20028;-92
2023/05/26 01:25:55;;;;;;;8.68;5.57;;;;;;;14.88;81.93;99431.00;4923867;29;20062;-92
2023/05/26 01:28:26;;;;;;;8.45;6.10;;;;;;;14.71;84.33;99439.66;4924196;29;20027;-92
2023/05/26 01:30:51;;;;;;;12.57;5.00;;;;;;;14.42;83.69;99425.41;4924278;29;20098;-91
2023/05/26 01:33:17;;;;;;;6.05;4.25;;;;;;;14.37;83.24;99407.34;4908257;29;20116;-93
2023/05/26 01:35:42;;;;;;;8.85;4.65;;;;;;;14.43;84.45;99424.31;4909977;29;20063;-92
2023/05/26 01:38:08;;;;;;;5.85;4.35;;;;;;;14.50;83.72;99438.28;4924730;29;20027;-92
2023/05/26 01:40:34;;;;;;;5.30;4.35;;;;;;;14.38;83.70;99406.25;4907921;29;20095;-92
2023/05/26 01:43:02;;;;;;;5.43;4.45;;;;;;;14.39;84.03;99409.75;4939346;29;20127;-93
2023/05/26 01:45:34;;;;;;;8.70;4.22;;;;;;;14.38;83.23;99402.72;4924963;29;20027;-92
2023/05/26 01:48:05;;;;;;;7.20;5.15;;;;;;;14.54;83.65;99434.72;4924973;29;20043;-92
2023/05/26 01:53:54;;;;;;;7.55;5.10;;;;;;;14.63;82.82;99434.06;4941284;29;20091;-92
2023/05/26 01:56:20;;;;;;;7.60;5.30;;;;;;;14.38;83.82;99397.28;4908340;29;20494;-92
2023/05/26 01:58:46;;;;;;;7.10;5.88;;;;;;;14.40;84.29;99420.31;4924396;29;20023;-92
2023/05/26 02:04:33;;;;;;;8.40;6.20;;;;;;;14.62;83.63;99419.72;4940840;29;20099;-92
2023/05/26 02:07:02;;;;;;;10.10;6.07;;;;;;;14.67;83.47;99416.97;4907304;29;20028;-92
2023/05/26 02:09:29;;;;;;;10.50;6.72;;;;;;;14.61;83.94;99417.31;4907569;29;20023;-92
2023/05/26 02:11:54;;;;;;;10.27;6.38;;;;;;;14.57;83.80;99411.69;4923887;29;20086;-92
2023/05/26 02:14:20;;;;;;;7.63;6.10;;;;;;;14.64;83.01;99414.81;4904623;29;20052;-92
2023/05/26 02:16:45;;;;;;;8.82;6.70;;;;;;;14.61;83.34;99418.13;4887682;29;20069;-92
2023/05/26 02:19:12;;;;;;;8.40;6.25;;;;;;;14.69;83.31;99427.47;4903689;29;20459;-92
2023/05/26 02:21:38;;;;;;;10.30;6.38;;;;;;;14.68;82.99;99409.63;4903982;29;20036;-92
2023/05/26 02:24:03;;;;;;;9.45;6.10;;;;;;;14.71;83.01;99417.97;4920387;29;20495;-92
2023/05/26 02:26:29;;;;;;;8.05;5.35;;;;;;;14.94;81.84;99442.53;4919294;29;20099;-92
2023/05/26 02:28:56;;;;;;;7.95;4.75;;;;;;;14.90;81.39;99412.53;4888663;29;20047;-92
2023/05/26 02:31:22;;;;;;;7.30;4.57;;;;;;;14.90;81.10;99414.41;4904334;29;20083;-92
2023/05/26 02:33:48;;;;;;;5.65;4.13;;;;;;;14.93;80.70;99419.25;4903621;29;20024;-91
2023/05/26 02:36:14;;;;;;;6.15;4.07;;;;;;;15.05;80.97;99432.34;4904614;29;20024;-90
2023/05/26 02:38:40;;;;;;;5.60;4.13;;;;;;;14.89;80.96;99401.97;4887748;29;20429;-90
2023/05/26 02:41:08;;;;;;;6.75;4.57;;;;;;;14.81;82.29;99399.94;4889680;29;20020;-91
2023/05/26 02:43:33;;;;;;;5.63;4.82;;;;;;;14.72;84.08;99411.44;4872347;29;20040;-92
2023/05/26 02:45:59;;;;;;;7.18;4.97;;;;;;;14.74;82.95;99422.78;4888453;29;20483;-91
2023/05/26 02:48:24;;;;;;;7.35;5.28;;;;;;;14.68;83.71;99407.72;4872751;29;20024;-91
2023/05/26 02:50:50;;;;;;;9.80;5.03;;;;;;;14.62;84.84;99433.28;4904628;29;20024;-92
2023/05/26 02:53:15;;;;;;;7.72;5.28;;;;;;;14.56;84.46;99418.19;4887965;29;20039;-92
2023/05/26 02:55:42;;;;;;;8.15;5.03;;;;;;;14.51;84.31;99393.88;4888016;29;20028;-91
2023/05/26 02:58:07;;;;;;;7.93;4.85;;;;;;;14.59;84.77;99404.06;4872114;29;20036;-92
2023/05/26 03:00:33;;;;;;;5.78;4.40;;;;;;;14.65;84.20;99407.50;4887830;29;20027;-91
2023/05/26 03:02:58;;;;;;;6.65;4.30;;;;;;;14.72;83.79;99419.56;4903209;29;20059;-93
2023/05/26 03:05:24;;;;;;;8.05;4.88;;;;;;;14.72;83.11;99408.72;4903900;29;20028;-92
2023/05/26 03:07:49;;;;;;;8.55;4.78;;;;;;;14.71;83.30;99411.72;4887990;29;20586;-92
2023/05/26 03:10:15;;;;;;;8.88;5.63;;;;;;;14.68;84.42;99413.13;4888160;29;20031;-91
2023/05/26 03:12:40;;;;;;;7.60;5.35;;;;;;;14.59;84.53;99395.13;4887677;29;20060;-92
2023/05/26 03:15:07;;;;;;;8.50;5.03;;;;;;;14.46;85.09;99402.84;4913209;29;20051;-92
2023/05/26 03:17:32;;;;;;;10.90;5.55;;;;;;;14.56;84.87;99418.19;4923828;29;20031;-92
2023/05/26 03:19:58;;;;;;;7.88;5.82;;;;;;;14.57;84.84;99419.81;4922573;29;20027;-91
2023/05/26 03:22:23;;;;;;;6.65;5.38;;;;;;;14.59;84.00;99412.19;4921568;29;20039;-91
2023/05/26 03:24:49;;;;;;;8.32;5.78;;;;;;;14.62;84.30;99421.63;4922474;29;20024;-91
2023/05/26 03:27:16;;;;;;;8.77;6.95;;;;;;;14.49;84.72;99425.88;4906160;29;20399;-90
2023/05/26 03:29:42;;;;;;;9.13;6.88;;;;;;;14.52;84.17;99422.56;4922280;29;20020;-91
2023/05/26 03:32:08;;;;;;;10.18;6.85;;;;;;;14.52;84.19;99428.78;4906266;29;20401;-91
2023/05/26 03:34:38;;;;;;;8.93;6.57;;;;;;;14.58;84.04;99426.84;4905771;29;20031;-91
2023/05/26 03:37:05;;;;;;;8.60;6.35;;;;;;;14.68;84.00;99417.75;4922642;29;20045;-92
2023/05/26 03:39:31;;;;;;;8.82;5.78;;;;;;;14.78;83.45;99425.72;4922313;29;20497;-91
2023/05/26 03:41:56;;;;;;;10.07;5.32;;;;;;;14.94;82.90;99437.13;4906272;29;20035;-91
2023/05/26 03:44:22;;;;;;;8.15;5.60;;;;;;;14.81;83.56;99422.41;4921536;29;20074;-90
2023/05/26 03:46:47;;;;;;;7.95;5.25;;;;;;;14.85;82.61;99420.72;4905602;29;20051;-91
2023/05/26 03:49:13;;;;;;;11.73;5.75;;;;;;;14.89;82.94;99434.50;4918079;29;20031;-92
2023/05/26 03:51:38;;;;;;;6.35;5.05;;;;;;;15.12;82.25;99443.63;4901996;29;20020;-90
2023/05/26 03:54:04;;;;;;;6.55;5.22;;;;;;;15.10;81.09;99429.56;4935758;29;20114;-91
2023/05/26 03:56:30;;;;;;;9.70;5.75;;;;;;;15.04;81.64;99420.69;4918121;29;20479;-93
2023/05/26 03:58:55;;;;;;;9.95;6.05;;;;;;;15.14;80.75;99430.56;4899186;29;20025;-91
2023/05/26 04:01:22;;;;;;;7.78;5.28;;;;;;;15.09;79.86;99406.25;4921089;29;20043;-91
2023/05/26 04:03:56;;;;;;;7.18;4.05;;;;;;;15.36;80.17;99443.50;4899105;29;20087;-92
2023/05/26 04:06:25;;;;;;;8.50;4.70;;;;;;;15.31;79.65;99425.38;4919932;29;20079;-94
2023/05/26 04:08:50;;;;;;;7.28;5.30;;;;;;;15.31;80.27;99425.38;4936812;29;20106;-91
2023/05/26 04:11:16;;;;;;;9.82;5.53;;;;;;;15.26;80.98;99425.47;4936760;29;20051;-91
2023/05/26 04:13:42;;;;;;;6.72;5.18;;;;;;;15.28;80.35;99434.13;4904901;29;20031;-92
2023/05/26 04:16:07;;;;;;;8.00;5.95;;;;;;;15.21;80.44;99424.75;4920448;29;20052;-91
2023/05/26 04:18:33;;;;;;;10.70;5.75;;;;;;;15.22;80.54;99431.81;4930215;29;20028;-92
2023/05/26 04:20:59;;;;;;;10.88;5.85;;;;;;;15.29;80.65;99426.78;4889482;29;20044;-92
2023/05/26 04:23:25;;;;;;;7.80;5.35;;;;;;;15.43;81.02;99460.16;4897650;29;20044;-88
2023/05/26 04:25:50;;;;;;;7.05;5.13;;;;;;;15.20;80.79;99431.28;4934259;29;20028;-93
2023/05/26 04:28:16;;;;;;;8.43;5.20;;;;;;;15.25;80.68;99423.88;4918363;29;20020;-93
2023/05/26 04:30:42;;;;;;;13.25;5.57;;;;;;;15.09;81.50;99415.19;4928431;29;20025;-92
2023/05/26 04:33:09;;;;;;;9.45;6.00;;;;;;;15.23;81.48;99438.81;4883997;29;20042;-93
2023/05/26 04:35:35;;;;;;;8.70;5.72;;;;;;;15.12;80.88;99421.91;4894623;29;20028;-92
2023/05/26 04:38:01;;;;;;;15.75;7.28;;;;;;;15.18;81.42;99425.34;4897514;29;20024;-91
2023/05/26 04:40:26;;;;;;;11.18;5.72;;;;;;;15.20;80.07;99423.94;4917943;29;20024;-92
2023/05/26 04:42:52;;;;;;;13.50;5.78;;;;;;;15.33;79.63;99435.94;4940162;29;20051;-89
2023/05/26 04:45:18;;;;;;;14.82;6.60;;;;;;;15.23;81.95;99433.41;4905245;29;20548;-91
2023/05/26 04:47:44;;;;;;;11.70;5.75;;;;;;;15.26;81.40;99447.19;4898151;29;20028;-91
2023/05/26 04:50:16;;;;;;;9.63;5.40;;;;;;;15.41;81.12;99442.59;4909651;29;20024;-92
2023/05/26 04:52:42;;;;;;;7.88;5.65;;;;;;;15.45;81.34;99451.75;4916604;29;20034;-93
2023/05/26 04:55:10;;;;;;;8.07;5.18;;;;;;;15.71;79.58;99462.94;4922747;29;20043;-92
2023/05/26 04:57:36;;;;;;;9.85;5.25;;;;;;;15.71;79.62;99455.59;4926132;29;20028;-94
2023/05/26 05:00:06;;;;;;;13.13;6.10;;;;;;;15.78;78.53;99435.44;4936567;29;20036;-91
2023/05/26 05:02:31;;;;;;;11.25;5.78;;;;;;;15.85;78.33;99439.34;4912668;29;20427;-92
2023/05/26 05:04:57;;;;;;;14.77;6.03;;;;;;;16.06;79.98;99469.63;4914738;29;20050;-90
2023/05/26 05:07:22;;;;;;;11.77;5.50;;;;;;;16.04;79.55;99452.81;4922926;29;20028;-92
2023/05/26 05:09:48;;;;;;;10.82;5.78;;;;;;;16.10;78.14;99445.34;4898257;29;20031;-90
2023/05/26 05:12:13;;;;;;;8.45;4.88;;;;;;;16.44;76.47;99465.88;4918699;29;20053;-90
2023/05/26 05:14:39;;;;;;;10.45;5.00;;;;;;;16.56;75.45;99475.09;4924738;29;20055;-94
2023/05/26 05:17:04;;;;;;;10.65;5.53;;;;;;;16.63;74.14;99460.28;4909160;29;20063;-91
2023/05/26 05:19:31;;;;;;;8.35;5.85;;;;;;;16.73;74.98;99468.19;4922920;29;20051;-92
2023/05/26 05:21:57;;;;;;;9.00;6.00;;;;;;;16.72;73.97;99464.66;4927373;29;20119;-93
2023/05/26 05:25:09;;;;;;;12.63;10.57;;;;;;;16.88;74.50;99465.16;4910276;29;20138;-91
2023/05/26 05:27:35;;;;;;;;;;;;;;;16.85;75.24;99484.81;4895658;29;20499;-91
2023/05/26 05:30:00;;;;;;;18.08;6.70;;;;;;;16.91;75.05;99472.72;4934204;29;19943;-91
2023/05/26 05:32:25;;;;;;;15.52;6.07;;;;;;;16.84;73.23;99458.72;4935798;29;20035;-89
2023/05/26 05:34:51;;;;;;;9.40;6.18;;;;;;;17.08;73.17;99465.75;4932683;29;20044;-91
2023/05/26 05:37:19;;;;;;;8.13;6.18;;;;;;;17.12;73.33;99461.31;4891379;29;20036;-91
2023/05/26 05:39:51;;;;;;;11.93;6.20;;;;;;;17.34;73.11;99458.56;4914362;29;20032;-92
2023/05/26 05:42:26;;;;;;;12.68;6.60;;;;;;;17.38;72.92;99464.19;4934190;29;20204;-91
2023/05/26 05:44:51;;;;;;;9.68;5.72;;;;;;;17.36;72.11;99459.06;4918101;29;20038;-90
2023/05/26 05:47:17;;;;;;;12.05;6.80;;;;;;;17.46;72.47;99468.09;4892845;29;20036;-90
2023/05/26 05:49:42;;;;;;;11.13;6.13;;;;;;;17.53;72.41;99469.25;4925383;29;20508;-90
2023/05/26 05:52:08;;;;;;;9.35;5.68;;;;;;;17.57;72.35;99483.84;4915325;29;20031;-90
2023/05/26 05:54:33;;;;;;;7.00;4.40;;;;;;;17.46;70.66;99468.91;4921397;29;20035;-90
2023/05/26 05:57:00;;;;;;;8.57;4.75;;;;;;;17.41;71.72;99473.66;4916017;29;20056;-91
2023/05/26 05:59:25;;;;;;;9.73;5.10;;;;;;;17.41;71.74;99477.22;4917002;29;20024;-88
2023/05/26 06:01:53;;;;;;;12.95;8.38;;;;;;;17.43;71.74;99476.88;4943633;29;20027;-91
2023/05/26 06:04:30;;;;;;;16.30;9.25;;;;;;;17.47;72.30;99459.63;4911615;29;20122;-93
2023/05/26 06:06:56;;;;;;;10.00;7.22;;;;;;;17.69;70.98;99482.47;4903946;29;20126;-89
2023/05/26 06:09:22;;;;;;;14.35;7.03;;;;;;;18.00;71.28;99498.03;4932317;29;20083;-93
2023/05/26 06:11:47;;;;;;;9.95;4.97;;;;;;;18.08;70.72;99475.44;4919972;29;20031;-91
2023/05/26 06:14:16;;;;;;;9.85;4.93;;;;;;;18.07;70.55;99480.06;4936233;29;20110;-91
2023/05/26 06:16:41;;;;;;;13.32;6.28;;;;;;;18.20;70.32;99488.44;4905502;29;20040;-92
2023/05/26 06:19:07;;;;;;;23.40;7.18;;;;;;;18.36;69.73;99481.44;4923659;29;20046;-92
2023/05/26 06:21:36;;;;;;;14.90;8.88;;;;;;;18.41;68.40;99475.84;4924199;29;20052;-94
2023/05/26 06:24:02;;;;;;;16.65;9.57;;;;;;;18.60;68.02;99497.38;4909738;29;20126;-90
2023/05/26 06:26:27;;;;;;;14.25;10.38;;;;;;;18.73;68.14;99487.44;4926410;29;20062;-90
2023/05/26 06:28:53;;;;;;;15.27;5.00;;;;;;;18.91;68.39;99497.25;4908641;29;20355;-92
2023/05/26 06:31:18;;;;;;;5.45;4.43;;;;;;;18.95;67.77;99487.31;4906723;29;20019;-90
2023/05/26 06:33:44;;;;;;;11.80;6.97;;;;;;;18.93;68.69;99475.13;4937710;29;20050;-94
2023/05/26 06:36:11;;;;;;;14.25;6.45;;;;;;;19.24;68.08;99493.25;4895547;29;20062;-92
2023/05/26 06:38:36;;;;;;;10.30;5.18;;;;;;;19.45;67.37;99496.09;4914361;29;20035;-93
2023/05/26 06:41:02;;;;;;;11.70;5.60;;;;;;;19.61;66.45;99489.00;4933570;29;20028;-89
2023/05/26 06:43:27;;;;;;;11.32;5.13;;;;;;;19.37;66.54;99493.03;4937045;29;20123;-92
2023/05/26 06:45:58;;;;;;;7.32;5.13;;;;;;;19.20;67.11;99475.91;4925834;29;20091;-94
2023/05/26 06:48:23;;;;;;;8.70;5.30;;;;;;;19.24;67.92;99494.03;4917476;29;20086;-91
2023/05/26 06:50:49;;;;;;;8.77;4.85;;;;;;;19.33;67.04;99496.75;4924671;29;20032;-91
2023/05/26 06:53:15;;;;;;;10.05;6.55;;;;;;;19.48;66.95;99470.84;4908967;29;20036;-92
2023/05/26 06:55:40;;;;;;;7.00;5.18;;;;;;;19.77;65.11;99498.25;4911278;29;20028;-94
2023/05/26 06:58:06;;;;;;;10.75;5.10;;;;;;;19.67;64.22;99462.28;4912605;29;20036;-93
2023/05/26 07:00:31;;;;;;;11.82;5.65;;;;;;;19.53;64.99;99460.56;4926425;29;20098;-90
2023/05/26 07:02:57;;;;;;;8.45;5.25;;;;;;;19.56;65.97;99483.69;4915878;29;20399;-91
2023/05/26 07:05:22;;;;;;;10.75;5.53;;;;;;;19.54;65.80;99484.00;4892633;29;20040;-93
2023/05/26 07:11:38;;;;;;;11.40;5.30;;;;;;;19.56;66.45;99481.75;4927318;29;20455;-94
2023/05/26 07:17:22;;;;;;;;;;;;;;;;;;;;;
2023/05/26 07:29:33;;;;;;;8.93;3.20;;;;;;;20.47;61.54;99465.13;4938975;23;20056;-95
2023/05/26 07:31:59;;;;;;;8.85;7.78;;;;;;;20.53;62.42;99485.66;4874139;29;20042;-94
2023/05/26 07:34:58;;;;;;;6.35;3.80;;;;;;;20.32;61.66;99469.22;4878918;29;20082;-96
2023/05/26 07:37:45;;;;;;;26.35;17.05;;;;;;;20.54;60.01;99475.50;4921253;29;20440;-96
2023/05/26 07:40:46;;;;;;;;;;;;;;;;;;;;;
2023/05/26 07:43:15;;;;;;;4.40;3.05;;;;;;;20.88;59.55;99493.66;4942237;29;20040;-96
2023/05/26 07:48:19;;;;;;;4.20;2.80;;;;;;;20.82;59.12;99486.00;5062092;23;20052;-96
2023/05/26 07:50:57;;;;;;;6.68;3.55;;;;;;;20.89;60.55;99467.06;4928898;29;20029;-96
2023/05/26 07:53:47;;;;;;;7.15;3.15;;;;;;;21.17;59.92;99481.81;4863179;29;20038;-96
2023/05/26 07:56:36;;;;;;;6.68;3.33;;;;;;;21.31;58.44;99472.47;4873897;29;20110;-96
2023/05/26 07:59:03;;;;;;;9.88;3.40;;;;;;;21.18;58.31;99466.97;4858378;29;20058;-96
2023/05/26 08:02:40;;;;;;;;;;;;;;;;;;;;;
2023/05/26 08:05:05;;;;;;;12.20;3.63;;;;;;;21.55;58.72;99458.88;4862178;29;20049;-95
2023/05/26 08:07:49;;;;;;;11.90;3.20;;;;;;;21.88;57.54;99460.75;4856722;29;20068;-96
2023/05/26 08:15:53;;;;;;;10.68;5.47;;;;;;;22.56;54.98;99448.38;5191791;23;20116;-95
2023/05/26 08:21:51;;;;;;;6.00;3.15;;;;;;;22.79;54.46;99476.09;5037537;23;20056;-96
2023/05/26 08:24:17;;;;;;;5.78;3.63;;;;;;;22.65;54.56;99457.25;4934309;29;20047;-88
2023/05/26 08:26:42;;;;;;;4.78;2.50;;;;;;;22.46;54.38;99457.88;4942089;29;20031;-87
2023/05/26 08:29:27;;;;;;;10.77;3.78;;;;;;;22.58;54.43;99471.56;4910040;29;20035;-95
2023/05/26 08:31:59;;;;;;;3.63;2.50;;;;;;;22.15;54.38;99447.50;4919191;29;20031;-93
2023/05/26 08:34:28;;;;;;;4.30;2.70;;;;;;;22.22;54.76;99444.97;4926170;29;20031;-90
2023/05/26 08:36:54;;;;;;;3.58;2.22;;;;;;;22.26;54.28;99445.09;4943139;29;20027;-93
2023/05/26 08:39:49;;;;;;;4.93;2.30;;;;;;;22.22;54.76;99466.09;4909500;29;20504;-92
2023/05/26 08:42:32;;;;;;;30.42;16.80;;;;;;;21.86;55.28;99448.53;4928905;29;20090;-94
2023/05/26 08:48:54;;;;;;;4.18;2.28;;;;;;;22.16;55.40;99466.34;4949638;29;20038;-96
2023/05/26 08:52:04;;;;;;;2.63;2.00;;;;;;;22.25;53.56;99443.53;4949984;29;20028;-96
2023/05/26 08:54:46;;;;;;;5.20;2.25;;;;;;;22.36;53.63;99452.88;4931862;29;20027;-95
2023/05/26 09:00:29;;;;;;;8.45;3.80;;;;;;;22.59;51.93;99464.13;4843888;29;20038;-93
2023/05/26 09:02:55;;;;;;;3.00;2.30;;;;;;;22.56;51.71;99465.63;4923095;29;20039;-92
2023/05/26 09:05:22;;;;;;;3.40;2.00;;;;;;;22.84;51.41;99472.31;4902954;29;20537;-93
2023/05/26 09:07:52;;;;;;;3.60;2.33;;;;;;;22.98;52.04;99458.97;4946761;29;20028;-94
2023/05/26 09:10:32;;;;;;;2.72;1.90;;;;;;;22.96;51.31;99442.06;4927074;29;20095;-95
2023/05/26 09:13:06;;;;;;;2.60;2.08;;;;;;;22.93;50.46;99465.53;4893497;29;20054;-95
2023/05/26 09:15:41;;;;;;;7.57;2.60;;;;;;;22.89;51.69;99455.56;4926336;29;20033;-96
2023/05/26 09:20:59;;;;;;;4.10;2.33;;;;;;;22.98;50.91;99456.22;4930013;29;20044;-95
2023/05/26 09:23:54;;;;;;;2.85;2.35;;;;;;;23.08;51.36;99468.72;4909678;29;20035;-95
2023/05/26 09:26:28;;;;;;;4.53;2.30;;;;;;;23.25;51.52;99462.88;4930415;29;20035;-95
2023/05/26 09:29:12;;;;;;;2.90;2.13;;;;;;;23.52;49.71;99471.44;4922706;29;20063;-93
2023/05/26 09:32:09;;;;;;;5.50;2.25;;;;;;;23.47;50.66;99456.03;4924260;29;20060;-94
2023/05/26 09:34:57;;;;;;;11.10;2.90;;;;;;;23.65;50.78;99447.41;4909345;29;20024;-96
2023/05/26 09:37:28;;;;;;;3.20;2.30;;;;;;;23.60;51.54;99443.78;4927403;29;20044;-92
2023/05/26 09:39:55;;;;;;;3.50;2.28;;;;;;;23.76;49.60;99445.72;4921311;29;20036;-94
2023/05/26 09:42:27;;;;;;;3.95;2.33;;;;;;;23.99;49.76;99446.72;4947102;29;20103;-95
2023/05/26 09:45:03;;;;;;;4.20;2.63;;;;;;;24.00;48.77;99442.03;4942250;29;20396;-95
2023/05/26 09:48:00;;;;;;;4.28;2.55;;;;;;;23.88;49.18;99420.91;4913201;29;20040;-94
2023/05/26 09:50:29;;;;;;;2.67;2.05;;;;;;;23.59;50.33;99419.38;4922199;29;20075;-94
2023/05/26 09:52:56;;;;;;;5.60;2.17;;;;;;;23.94;48.98;99438.75;4875027;29;20036;-94
2023/05/26 09:55:22;;;;;;;3.53;2.13;;;;;;;23.93;48.05;99422.63;4875472;29;20036;-94
2023/05/26 09:58:17;;;;;;;7.10;2.70;;;;;;;24.19;47.54;99436.56;4894675;29;20028;-94
2023/05/26 10:00:50;;;;;;;4.07;2.50;;;;;;;24.33;48.13;99424.28;4910081;29;20103;-95
2023/05/26 10:03:21;;;;;;;3.53;2.25;;;;;;;24.29;48.63;99420.66;4909307;29;20580;-95
2023/05/26 10:06:00;;;;;;;9.50;4.33;;;;;;;23.96;50.33;99417.19;4901330;29;20040;-96
2023/05/26 10:08:45;;;;;;;3.08;2.35;;;;;;;24.11;49.75;99401.00;4934335;29;20335;-94
2023/05/26 10:11:30;;;;;;;4.03;2.50;;;;;;;24.26;50.07;99424.94;4944074;29;20047;-93
2023/05/26 10:13:59;;;;;;;5.70;3.85;;;;;;;23.66;50.89;99396.78;4920473;29;20055;-95
2023/05/26 10:16:30;;;;;;;11.48;5.90;;;;;;;23.70;51.37;99398.47;4895675;29;20457;-95
2023/05/26 10:18:57;;;;;;;5.63;2.85;;;;;;;23.75;51.72;99405.66;4933767;29;20036;-94
2023/05/26 10:28:12;;;;;;;7.25;4.45;;;;;;;23.88;49.99;99387.91;4892117;29;20550;-95
2023/05/26 10:30:40;;;;;;;2.97;2.47;;;;;;;23.84;49.27;99361.50;4939525;29;20284;-93
2023/05/26 10:33:09;;;;;;;4.93;2.15;;;;;;;24.02;48.67;99394.91;4912023;29;20115;-92
2023/05/26 10:35:42;;;;;;;3.15;2.40;;;;;;;23.85;49.02;99371.34;4894599;29;20056;-94
2023/05/26 10:38:08;;;;;;;4.80;2.40;;;;;;;23.95;49.42;99392.81;4926305;29;20023;-93
2023/05/26 10:40:45;;;;;;;5.30;2.15;;;;;;;23.82;49.45;99372.03;4920129;29;20028;-92
2023/05/26 10:43:26;;;;;;;3.95;2.20;;;;;;;23.79;50.26;99374.34;4911716;29;20110;-93
2023/05/26 10:45:58;;;;;;;4.83;2.20;;;;;;;23.84;49.62;99384.28;4906444;29;20036;-96
2023/05/26 10:48:36;;;;;;;3.05;2.30;;;;;;;23.96;49.89;99383.38;4926833;29;20599;-92
2023/05/26 10:51:11;;;;;;;4.63;2.83;;;;;;;23.84;49.57;99367.00;4907067;29;20045;-96
2023/05/26 10:53:42;;;;;;;4.03;2.22;;;;;;;23.78;49.41;99356.28;4904949;29;20032;-89
2023/05/26 10:56:08;;;;;;;5.87;2.73;;;;;;;23.93;47.95;99349.16;4920777;29;20028;-89
2023/05/26 10:58:38;;;;;;;5.80;2.88;;;;;;;24.20;47.86;99344.63;4933143;29;20043;-92
2023/05/26 11:01:05;;;;;;;4.10;2.17;;;;;;;24.47;47.40;99344.78;4892929;29;20044;-95
2023/05/26 11:03:57;;;;;;;7.22;2.22;;;;;;;25.05;46.43;99343.13;4886459;29;20035;-96
2023/05/26 11:06:54;;;;;;;3.35;2.40;;;;;;;25.44;45.96;99324.50;4911024;29;20119;-96
2023/05/26 11:09:24;;;;;;;4.90;2.60;;;;;;;25.60;45.43;99335.41;4910944;29;20015;-95
2023/05/26 11:12:01;;;;;;;5.93;2.45;;;;;;;25.34;45.28;99325.16;4908511;29;20562;-95
2023/05/26 11:14:33;;;;;;;3.65;2.20;;;;;;;25.12;44.49;99316.50;4913782;29;20509;-95
2023/05/26 11:17:09;;;;;;;3.10;2.33;;;;;;;25.35;44.57;99327.53;4908217;29;20104;-96
2023/05/26 11:19:37;;;;;;;3.60;2.33;;;;;;;25.19;44.92;99332.34;4898703;29;20040;-95
2023/05/26 11:22:07;;;;;;;3.22;2.65;;;;;;;25.08;44.72;99301.06;4945700;29;20111;-95
2023/05/26 11:24:34;;;;;;;5.95;2.53;;;;;;;24.93;45.34;99308.28;4930012;29;20032;-95
2023/05/26 11:27:04;;;;;;;3.92;2.30;;;;;;;24.85;45.56;99303.81;4929247;29;20031;-96
2023/05/26 11:29:38;;;;;;;6.57;3.80;;;;;;;24.85;45.40;99312.88;4910606;29;20040;-96
2023/05/26 11:32:07;;;;;;;2.53;2.10;;;;;;;24.63;45.96;99283.34;4910632;29;20104;-94
2023/05/26 11:34:33;;;;;;;3.08;2.28;;;;;;;24.52;45.50;99280.41;4909286;29;20062;-94
2023/05/26 11:37:12;;;;;;;5.13;2.45;;;;;;;24.65;46.40;99303.06;4946119;29;20031;-96
2023/05/26 11:39:38;;;;;;;4.22;2.30;;;;;;;24.79;45.66;99304.09;4916274;29;20493;-95
2023/05/26 11:42:10;;;;;;;5.90;2.50;;;;;;;24.98;43.64;99300.50;4926141;29;20098;-91
2023/05/26 11:44:51;;;;;;;4.57;2.70;;;;;;;24.86;44.56;99297.13;4923918;29;20047;-96
2023/05/26 11:47:27;;;;;;;3.60;2.35;;;;;;;25.09;44.50;99297.94;4928994;29;20027;-94
2023/05/26 11:50:17;;;;;;;3.28;2.15;;;;;;;24.87;44.64;99274.75;4931932;29;20518;-95
2023/05/26 11:52:51;;;;;;;4.80;2.47;;;;;;;24.81;46.20;99296.28;4946768;29;20031;-95
2023/05/26 11:55:22;;;;;;;4.68;2.47;;;;;;;24.66;46.89;99288.13;4913938;29;20024;-94
2023/05/26 11:58:17;;;;;;;6.63;2.80;;;;;;;24.42;49.28;99301.03;4928057;29;20106;-95
2023/05/26 12:00:44;;;;;;;2.85;2.17;;;;;;;24.11;48.64;99279.94;4946929;29;20046;-95
2023/05/26 12:03:25;;;;;;;3.53;2.20;;;;;;;23.72;49.63;99275.19;4946688;29;20027;-96
2023/05/26 12:06:25;;;;;;;14.10;6.17;;;;;;;23.54;52.63;99305.03;4933043;29;20030;-95
2023/05/26 12:09:00;;;;;;;4.97;2.60;;;;;;;23.17;52.17;99293.53;4894221;29;20283;-95
2023/05/26 12:11:42;;;;;;;4.53;2.80;;;;;;;22.79;51.67;99305.88;4904956;29;20066;-93
2023/05/26 12:14:16;;;;;;;5.65;2.60;;;;;;;22.91;51.64;99305.00;4907781;29;20091;-95
2023/05/26 12:16:55;;;;;;;3.00;2.45;;;;;;;22.96;49.87;99291.81;4906019;29;20032;-95
2023/05/26 12:19:24;;;;;;;5.15;2.75;;;;;;;23.06;50.03;99296.03;4890555;29;20115;-96
2023/05/26 12:21:56;;;;;;;7.07;3.83;;;;;;;22.94;51.00;99265.88;4906943;29;20070;-96
2023/05/26 12:24:32;;;;;;;4.43;2.53;;;;;;;22.93;49.14;99272.50;4908647;29;20422;-95
2023/05/26 12:27:45;;;;;;;4.53;3.28;;;;;;;22.72;58.02;99259.84;4908276;29;20036;-95
2023/05/26 12:30:23;;;;;;;4.82;3.15;;;;;;;22.70;57.74;99273.13;4864209;29;20036;-94
2023/05/26 12:33:54;;;;;;;11.70;3.97;;;;;;;22.46;59.90;99238.38;4911245;29;20032;-95
2023/05/26 12:36:23;;;;;;;7.72;3.65;;;;;;;22.70;58.95;99267.63;4858053;29;20480;-95
2023/05/26 12:39:32;;;;;;;7.45;3.25;;;;;;;22.56;53.78;99237.84;4901709;29;20037;-96
2023/05/26 12:42:00;;;;;;;4.97;3.17;;;;;;;22.65;53.83;99247.88;4859620;29;20052;-96
2023/05/26 12:44:26;;;;;;;8.35;5.30;;;;;;;22.82;53.83;99236.53;4879379;29;20033;-96